Time;durP1;ratioP1;P1;durP2;ratioP2;P2;SDS_P1;SDS_P2;PMS_P1;PMS_P2;Temp;Humidity;BMP_temperature;BMP_pressure;BME280_temperature;BME280_humidity;BME280_pressure;Samples;Min_cycle;Max_cycle;Signal;HPM_P1;HPM_P2
2021/11/05 00:01:22;;;;;;;9.40;4.30;;;;;;;6.85;100.00;100894.31;6296909;28;20048;-65
2021/11/05 00:04:23;;;;;;;8.93;4.10;;;;;;;6.86;100.00;100901.28;6296570;28;20044;-66
2021/11/05 00:07:25;;;;;;;10.05;4.05;;;;;;;6.83;100.00;100901.38;6296199;28;20496;-66
2021/11/05 00:10:26;;;;;;;8.07;3.80;;;;;;;6.80;100.00;100904.09;6296587;28;20045;-65
2021/11/05 00:13:27;;;;;;;9.07;4.90;;;;;;;6.79;100.00;100906.75;6295996;28;20411;-66
2021/11/05 00:16:30;;;;;;;14.13;5.10;;;;;;;6.78;100.00;100908.53;6296242;28;20049;-66
2021/11/05 00:19:32;;;;;;;10.70;5.35;;;;;;;6.78;100.00;100915.50;6296626;28;20045;-66
2021/11/05 00:22:34;;;;;;;11.23;5.63;;;;;;;6.76;100.00;100914.69;6296476;28;20049;-66
2021/11/05 00:25:35;;;;;;;10.70;4.25;;;;;;;6.80;100.00;100924.13;6296135;28;20059;-66
2021/11/05 00:28:36;;;;;;;10.63;5.07;;;;;;;6.77;100.00;100926.88;6296436;28;20052;-66
2021/11/05 00:31:39;;;;;;;13.27;5.25;;;;;;;6.76;100.00;100933.81;6294200;28;20056;-65
2021/11/05 00:34:41;;;;;;;14.70;5.65;;;;;;;6.73;100.00;100936.56;6296227;28;20052;-66
2021/11/05 00:37:43;;;;;;;10.13;5.25;;;;;;;6.68;100.00;100946.31;6296144;28;20052;-66
2021/11/05 00:40:44;;;;;;;15.38;5.97;;;;;;;6.65;100.00;100951.63;6296085;28;20048;-66
2021/11/05 00:43:46;;;;;;;13.98;7.03;;;;;;;6.70;100.00;100951.47;6295878;28;20419;-66
2021/11/05 00:46:48;;;;;;;13.65;6.32;;;;;;;6.66;100.00;100948.13;6296358;28;20044;-65
2021/11/05 00:49:50;;;;;;;12.80;5.93;;;;;;;6.66;100.00;100944.66;6296037;28;20055;-65
2021/11/05 00:52:51;;;;;;;19.00;5.85;;;;;;;6.69;100.00;100949.78;6296327;28;20049;-66
2021/11/05 00:55:53;;;;;;;13.30;6.72;;;;;;;6.64;100.00;100946.47;6295891;28;20055;-65
2021/11/05 00:58:54;;;;;;;16.15;6.60;;;;;;;6.67;100.00;100954.19;6295871;28;20051;-66
2021/11/05 01:01:57;;;;;;;16.65;7.70;;;;;;;6.70;100.00;100959.31;6295625;28;20055;-66
2021/11/05 01:04:59;;;;;;;16.85;7.43;;;;;;;6.71;100.00;100974.06;6295603;28;20052;-66
2021/11/05 01:08:00;;;;;;;15.23;7.07;;;;;;;6.66;100.00;100970.78;6296094;28;20052;-66
2021/11/05 01:11:02;;;;;;;19.77;8.65;;;;;;;6.73;100.00;100977.50;6295747;28;20511;-65
2021/11/05 01:14:04;;;;;;;20.58;8.32;;;;;;;6.64;100.00;100969.97;6295828;28;20059;-66
2021/11/05 01:17:07;;;;;;;15.40;7.68;;;;;;;6.62;100.00;100980.47;6295675;28;20052;-65
2021/11/05 01:20:12;;;;;;;17.70;7.50;;;;;;;6.60;100.00;100993.56;6295863;28;20045;-66
2021/11/05 01:23:13;;;;;;;20.27;8.02;;;;;;;6.57;100.00;100985.84;6295495;28;20053;-66
2021/11/05 01:26:15;;;;;;;20.70;8.38;;;;;;;6.66;100.00;100996.88;6297899;28;20071;-65
2021/11/05 01:29:16;;;;;;;21.30;9.00;;;;;;;6.64;100.00;101006.53;6300294;28;20076;-65
2021/11/05 01:32:19;;;;;;;19.48;7.60;;;;;;;6.65;100.00;101005.63;6299627;28;20518;-66
2021/11/05 01:35:21;;;;;;;15.88;7.13;;;;;;;6.63;100.00;101004.81;6275481;28;20049;-65
2021/11/05 01:38:22;;;;;;;15.18;7.43;;;;;;;6.63;100.00;101013.50;6275331;28;20047;-66
2021/11/05 01:41:25;;;;;;;17.60;8.15;;;;;;;6.58;100.00;101015.41;6275541;28;20496;-66
2021/11/05 01:44:27;;;;;;;19.17;7.88;;;;;;;6.62;100.00;101014.41;6275000;28;20131;-66
2021/11/05 01:47:29;;;;;;;21.60;10.32;;;;;;;6.60;100.00;101017.06;6275447;28;20095;-66
2021/11/05 01:50:31;;;;;;;14.95;6.05;;;;;;;6.55;100.00;101026.81;6274911;28;20416;-65
2021/11/05 01:53:32;;;;;;;20.42;7.50;;;;;;;6.53;100.00;101026.00;6275033;28;20484;-66
2021/11/05 01:56:34;;;;;;;17.27;6.70;;;;;;;6.52;100.00;101026.91;6274979;28;20057;-66
2021/11/05 01:59:37;;;;;;;19.38;7.82;;;;;;;6.56;100.00;101031.13;6274734;28;20045;-66
2021/11/05 02:02:41;;;;;;;18.42;7.60;;;;;;;6.56;100.00;101030.28;6285359;28;20436;-66
2021/11/05 02:05:43;;;;;;;15.05;6.93;;;;;;;6.52;100.00;101032.13;6299593;28;20055;-65
2021/11/05 02:08:46;;;;;;;16.13;7.80;;;;;;;6.52;100.00;101039.09;6299702;28;20056;-66
2021/11/05 02:11:50;;;;;;;15.57;6.05;;;;;;;6.49;100.00;101041.81;6299317;28;20048;-65
2021/11/05 02:14:52;;;;;;;18.80;6.25;;;;;;;6.46;100.00;101040.16;6299337;28;20048;-66
2021/11/05 02:17:55;;;;;;;14.05;6.82;;;;;;;6.46;100.00;101045.38;6299240;28;20059;-66
2021/11/05 02:20:57;;;;;;;16.75;6.07;;;;;;;6.44;100.00;101046.31;6299335;28;20519;-65
2021/11/05 02:24:00;;;;;;;16.75;7.15;;;;;;;6.45;100.00;101056.75;6298923;28;20044;-66
2021/11/05 02:27:01;;;;;;;13.25;5.20;;;;;;;6.43;100.00;101050.69;6299224;28;20044;-65
2021/11/05 02:30:07;;;;;;;16.90;6.38;;;;;;;6.46;100.00;101061.06;6298923;28;20045;-66
2021/11/05 02:33:09;;;;;;;17.48;7.18;;;;;;;6.47;100.00;101057.53;6298505;28;20048;-65
2021/11/05 02:36:11;;;;;;;13.02;6.22;;;;;;;6.44;100.00;101062.00;6293481;28;20055;-65
2021/11/05 02:39:14;;;;;;;14.85;5.88;;;;;;;6.38;100.00;101068.25;6288354;28;20518;-65
2021/11/05 02:42:15;;;;;;;15.40;6.43;;;;;;;6.40;100.00;101071.66;6298894;28;20491;-66
2021/11/05 02:45:17;;;;;;;12.80;5.60;;;;;;;6.47;100.00;101074.94;6298459;28;20048;-65
2021/11/05 02:48:18;;;;;;;14.93;7.13;;;;;;;6.39;100.00;101075.19;6273863;28;20500;-66
2021/11/05 02:51:19;;;;;;;14.40;6.05;;;;;;;6.33;100.00;101078.84;6276144;28;20048;-65
2021/11/05 02:54:22;;;;;;;12.13;5.75;;;;;;;6.31;100.00;101087.59;6273534;28;20052;-65
2021/11/05 02:57:24;;;;;;;12.93;5.53;;;;;;;6.35;100.00;101086.63;6273559;28;20238;-66
2021/11/05 03:00:25;;;;;;;13.35;5.82;;;;;;;6.36;100.00;101088.34;6273578;28;20041;-65
2021/11/05 03:03:27;;;;;;;13.48;5.35;;;;;;;6.38;100.00;101089.13;6292544;28;20044;-65
2021/11/05 03:06:34;;;;;;;20.17;5.95;;;;;;;6.40;100.00;101089.94;6298282;28;20067;-66
2021/11/05 03:09:39;;;;;;;14.65;6.15;;;;;;;6.41;100.00;101104.72;6298091;28;20040;-65
2021/11/05 03:12:41;;;;;;;16.55;6.55;;;;;;;6.42;100.00;101100.34;6298010;28;20459;-66
2021/11/05 03:15:42;;;;;;;14.80;5.53;;;;;;;6.41;100.00;101107.31;6297753;28;20044;-66
2021/11/05 03:18:44;;;;;;;14.85;5.38;;;;;;;6.40;100.00;101118.66;6297750;28;20055;-66
2021/11/05 03:21:45;;;;;;;19.60;6.05;;;;;;;6.34;100.00;101117.09;6297798;28;20044;-66
2021/11/05 03:24:48;;;;;;;12.90;5.28;;;;;;;6.34;100.00;101127.53;6297834;28;20044;-66
2021/11/05 03:27:49;;;;;;;13.82;4.72;;;;;;;6.34;100.00;101137.13;6276550;28;20484;-65
2021/11/05 03:30:50;;;;;;;14.40;6.18;;;;;;;6.37;100.00;101137.03;6272650;28;20049;-66
2021/11/05 03:33:52;;;;;;;11.30;5.03;;;;;;;6.36;100.00;101143.16;6292201;28;20052;-65
2021/11/05 03:36:53;;;;;;;13.52;4.88;;;;;;;6.35;100.00;101150.09;6297331;28;20055;-65
2021/11/05 03:39:56;;;;;;;14.32;5.25;;;;;;;6.37;100.00;101155.31;6297022;28;20411;-66
2021/11/05 03:42:57;;;;;;;10.68;5.68;;;;;;;6.38;100.00;101159.63;6297299;28;20044;-66
2021/11/05 03:46:01;;;;;;;17.30;5.45;;;;;;;6.41;100.00;101154.31;6297087;28;20401;-66
2021/11/05 03:49:03;;;;;;;14.85;6.30;;;;;;;6.42;100.00;101163.84;6296936;28;20044;-66
2021/11/05 03:52:05;;;;;;;18.83;6.05;;;;;;;6.44;100.00;101167.25;6297433;28;20052;-66
2021/11/05 03:55:08;;;;;;;10.32;5.20;;;;;;;6.39;100.00;101165.69;6296885;28;20056;-66
2021/11/05 03:58:10;;;;;;;13.30;4.93;;;;;;;6.40;100.00;101173.47;6296917;28;20052;-66
2021/11/05 04:01:11;;;;;;;11.77;6.25;;;;;;;6.33;100.00;101172.81;6296942;28;20041;-65
2021/11/05 04:04:13;;;;;;;12.50;4.60;;;;;;;6.38;100.00;101171.81;6295980;28;20076;-66
2021/11/05 04:07:14;;;;;;;12.40;5.20;;;;;;;6.37;100.00;101183.16;6296940;28;20059;-66
2021/11/05 04:10:18;;;;;;;13.32;5.82;;;;;;;6.36;100.00;101190.16;6296536;28;20056;-66
2021/11/05 04:13:19;;;;;;;12.65;5.05;;;;;;;6.38;100.00;101192.69;6296655;28;20452;-65
2021/11/05 04:16:21;;;;;;;13.65;5.72;;;;;;;6.41;100.00;101195.25;6296040;28;20446;-66
2021/11/05 04:19:22;;;;;;;11.77;4.95;;;;;;;6.39;100.00;101197.88;6296615;28;20052;-66
2021/11/05 04:22:24;;;;;;;12.20;5.75;;;;;;;6.42;100.00;101199.56;6296551;28;20060;-66
2021/11/05 04:25:26;;;;;;;12.23;4.75;;;;;;;6.39;100.00;101197.00;6296457;28;20048;-66
2021/11/05 04:28:28;;;;;;;12.75;5.78;;;;;;;6.41;100.00;101206.53;6296507;28;20052;-66
2021/11/05 04:31:29;;;;;;;15.50;5.05;;;;;;;6.42;100.00;101210.84;6295583;28;20044;-66
2021/11/05 04:34:30;;;;;;;13.00;5.38;;;;;;;6.39;100.00;101216.13;6296272;28;20052;-66
2021/11/05 04:37:32;;;;;;;12.05;5.15;;;;;;;6.38;100.00;101217.03;6296285;28;20049;-66
2021/11/05 04:40:37;;;;;;;12.15;5.85;;;;;;;6.37;100.00;101217.94;6296282;28;20048;-66
2021/11/05 04:43:39;;;;;;;17.25;5.78;;;;;;;6.41;100.00;101227.41;6295990;28;20048;-65
2021/11/05 04:46:40;;;;;;;13.45;4.95;;;;;;;6.37;100.00;101235.38;6296335;28;20052;-65
2021/11/05 04:49:42;;;;;;;12.25;4.45;;;;;;;6.38;100.00;101248.38;6295980;28;20399;-66
2021/11/05 04:52:47;;;;;;;13.35;4.55;;;;;;;6.39;100.00;101244.00;6296325;28;20045;-66
2021/11/05 04:55:50;;;;;;;12.48;5.75;;;;;;;6.39;100.00;101244.84;6296003;28;20060;-64
2021/11/05 04:58:52;;;;;;;12.48;5.40;;;;;;;6.39;100.00;101246.63;6296136;28;20044;-65
2021/11/05 05:01:53;;;;;;;8.23;4.40;;;;;;;6.44;100.00;101253.41;6299301;28;20048;-65
2021/11/05 05:04:55;;;;;;;16.52;5.93;;;;;;;6.44;100.00;101261.25;6301078;28;20526;-64
2021/11/05 05:07:57;;;;;;;16.00;4.95;;;;;;;6.49;100.00;101263.72;6301152;28;20583;-65
2021/11/05 05:11:00;;;;;;;15.73;4.93;;;;;;;6.46;100.00;101271.66;6301067;28;20557;-65
2021/11/05 05:14:01;;;;;;;10.15;3.75;;;;;;;6.47;100.00;101269.00;6300844;28;20139;-64
2021/11/05 05:17:03;;;;;;;13.13;5.18;;;;;;;6.50;100.00;101266.31;6300756;28;20056;-65
2021/11/05 05:20:08;;;;;;;11.63;4.35;;;;;;;6.45;100.00;101276.03;6300754;28;20055;-65
2021/11/05 05:23:10;;;;;;;9.77;4.65;;;;;;;6.44;100.00;101279.50;6300702;28;20056;-65
2021/11/05 05:26:13;;;;;;;18.15;4.97;;;;;;;6.46;100.00;101282.09;6300321;28;20411;-65
2021/11/05 05:29:14;;;;;;;12.00;4.22;;;;;;;6.53;100.00;101288.84;6300320;28;20060;-65
2021/11/05 05:32:16;;;;;;;9.70;4.35;;;;;;;6.42;100.00;101291.78;6300470;28;20052;-65
2021/11/05 05:35:18;;;;;;;15.02;5.47;;;;;;;6.41;100.00;101297.03;6300147;28;20048;-65
2021/11/05 05:38:20;;;;;;;13.95;5.70;;;;;;;6.44;100.00;101304.78;6300472;28;20048;-65
2021/11/05 05:41:22;;;;;;;23.85;6.93;;;;;;;6.45;100.00;101312.59;6300134;28;20601;-65
2021/11/05 05:44:24;;;;;;;16.13;5.38;;;;;;;6.52;100.00;101323.69;6300138;28;20044;-66
2021/11/05 05:47:25;;;;;;;22.35;5.25;;;;;;;6.56;100.00;101325.34;6300251;28;20101;-65
2021/11/05 05:50:27;;;;;;;13.85;5.65;;;;;;;6.47;100.00;101320.38;6299794;28;20048;-65
2021/11/05 05:53:28;;;;;;;16.70;6.13;;;;;;;6.44;100.00;101336.09;6299804;28;20056;-66
2021/11/05 05:56:31;;;;;;;14.95;5.05;;;;;;;6.46;100.00;101340.41;6299820;28;20454;-65
2021/11/05 05:59:32;;;;;;;13.43;5.95;;;;;;;6.48;100.00;101349.03;6299746;28;20041;-66
2021/11/05 06:02:34;;;;;;;14.35;6.60;;;;;;;6.53;100.00;101359.34;6299227;28;20049;-65
2021/11/05 06:05:35;;;;;;;14.98;5.32;;;;;;;6.51;100.00;101367.25;6299590;28;20052;-65
2021/11/05 06:08:36;;;;;;;12.65;5.22;;;;;;;6.55;100.00;101368.88;6299622;28;20048;-65
2021/11/05 06:11:39;;;;;;;16.25;5.40;;;;;;;6.55;100.00;101373.25;6299601;28;20080;-65
2021/11/05 06:14:40;;;;;;;15.35;5.30;;;;;;;6.61;100.00;101381.75;6299333;28;20488;-65
2021/11/05 06:17:43;;;;;;;15.80;5.22;;;;;;;6.60;100.00;101384.41;6299695;28;20055;-65
2021/11/05 06:20:44;;;;;;;11.77;4.57;;;;;;;6.54;100.00;101395.00;6299235;28;20483;-65
2021/11/05 06:23:45;;;;;;;16.58;5.35;;;;;;;6.54;100.00;101401.09;6299019;28;20490;-65
2021/11/05 06:26:48;;;;;;;14.93;5.80;;;;;;;6.53;100.00;101391.53;6299508;28;20127;-66
2021/11/05 06:29:49;;;;;;;18.73;6.15;;;;;;;6.52;100.00;101396.81;6296129;28;20534;-65
2021/11/05 06:32:51;;;;;;;14.48;5.97;;;;;;;6.50;100.00;101407.31;6297827;28;20044;-66
2021/11/05 06:35:53;;;;;;;13.52;5.35;;;;;;;6.47;100.00;101402.16;6298448;28;20411;-65
2021/11/05 06:38:56;;;;;;;10.23;4.38;;;;;;;6.47;100.00;101409.13;6299214;28;20071;-65
2021/11/05 06:41:58;;;;;;;15.90;6.18;;;;;;;6.46;100.00;101410.03;6298786;28;20052;-66
2021/11/05 06:45:00;;;;;;;13.05;5.82;;;;;;;6.47;100.00;101419.56;6298513;28;20458;-65
2021/11/05 06:48:01;;;;;;;15.40;5.07;;;;;;;6.45;100.00;101427.47;6298820;28;20056;-65
2021/11/05 06:51:03;;;;;;;14.77;4.95;;;;;;;6.41;100.00;101430.19;6298674;28;20044;-65
2021/11/05 06:54:04;;;;;;;11.77;4.10;;;;;;;6.42;100.00;101431.88;6298456;28;20048;-66
2021/11/05 06:57:08;;;;;;;11.60;4.28;;;;;;;6.47;100.00;101430.03;6298607;28;20431;-65
2021/11/05 07:00:12;;;;;;;15.32;4.63;;;;;;;6.46;100.00;101434.38;6298361;28;20045;-66
2021/11/05 07:03:13;;;;;;;13.90;5.75;;;;;;;6.46;100.00;101436.16;6297733;28;20044;-65
2021/11/05 07:06:14;;;;;;;11.05;4.30;;;;;;;6.48;100.00;101447.38;6298202;28;20044;-66
2021/11/05 07:09:17;;;;;;;12.52;4.05;;;;;;;6.48;100.00;101450.00;6298119;28;20056;-65
2021/11/05 07:12:19;;;;;;;14.95;4.32;;;;;;;6.54;100.00;101455.94;6298008;28;20083;-66
2021/11/05 07:15:22;;;;;;;12.43;4.13;;;;;;;6.56;100.00;101458.50;6297704;28;20057;-66
2021/11/05 07:18:23;;;;;;;9.30;4.10;;;;;;;6.55;100.00;101464.63;6298152;28;20048;-66
2021/11/05 07:21:25;;;;;;;13.02;4.22;;;;;;;6.52;100.00;101470.78;6297620;28;20048;-65
2021/11/05 07:24:28;;;;;;;9.05;4.55;;;;;;;6.50;100.00;101479.56;6296998;28;20052;-65
2021/11/05 07:27:30;;;;;;;9.93;4.35;;;;;;;6.47;100.00;101488.31;6297778;28;20178;-65
2021/11/05 07:30:32;;;;;;;8.73;3.15;;;;;;;6.55;100.00;101490.75;6297424;28;20045;-65
2021/11/05 07:33:33;;;;;;;14.85;4.03;;;;;;;6.56;100.00;101506.38;6296206;28;20052;-66
2021/11/05 07:36:35;;;;;;;12.63;3.83;;;;;;;6.61;100.00;101511.47;6297475;28;20044;-65
2021/11/05 07:39:36;;;;;;;11.82;3.90;;;;;;;6.63;100.00;101519.25;6297449;28;20060;-65
2021/11/05 07:42:40;;;;;;;12.55;4.50;;;;;;;6.65;100.00;101520.94;6297354;28;20052;-66
2021/11/05 07:45:41;;;;;;;13.18;4.65;;;;;;;6.64;100.00;101521.00;6297305;28;20049;-66
2021/11/05 07:48:43;;;;;;;10.45;4.25;;;;;;;6.62;100.00;101528.84;6297213;28;20059;-66
2021/11/05 07:51:45;;;;;;;12.52;4.70;;;;;;;6.67;100.00;101532.22;6297118;28;20435;-66
2021/11/05 07:54:46;;;;;;;10.85;4.28;;;;;;;6.71;100.00;101533.84;6296721;28;20079;-66
2021/11/05 07:57:49;;;;;;;16.30;5.90;;;;;;;6.72;100.00;101538.19;6294395;28;20041;-66
2021/11/05 08:00:51;;;;;;;12.40;4.88;;;;;;;6.76;100.00;101547.66;6296234;28;20044;-65
2021/11/05 08:03:52;;;;;;;13.32;4.93;;;;;;;6.80;100.00;101553.66;6296029;28;20044;-66
2021/11/05 08:06:53;;;;;;;12.68;4.60;;;;;;;6.81;100.00;101545.81;6296989;28;20052;-66
2021/11/05 08:09:55;;;;;;;8.57;4.30;;;;;;;6.84;100.00;101550.94;6275753;28;20052;-66
2021/11/05 08:12:57;;;;;;;14.05;4.28;;;;;;;6.82;100.00;101557.97;6282858;28;20052;-66
2021/11/05 08:15:59;;;;;;;15.32;4.22;;;;;;;6.87;100.00;101555.25;6288045;28;20059;-67
2021/11/05 08:19:00;;;;;;;12.25;4.75;;;;;;;6.89;100.00;101557.81;6296736;28;20080;-66
2021/11/05 08:22:02;;;;;;;14.13;4.85;;;;;;;6.88;100.00;101564.78;6296349;28;20514;-66
2021/11/05 08:25:03;;;;;;;12.32;5.03;;;;;;;6.86;100.00;101574.44;6296388;28;20044;-66
2021/11/05 08:28:06;;;;;;;12.52;5.22;;;;;;;6.88;100.00;101570.00;6296483;28;20419;-67
2021/11/05 08:31:09;;;;;;;9.95;3.95;;;;;;;6.85;100.00;101585.75;6295947;28;20040;-67
2021/11/05 08:34:10;;;;;;;12.50;4.60;;;;;;;6.87;100.00;101591.81;6296058;28;20605;-66
2021/11/05 08:37:12;;;;;;;8.57;4.47;;;;;;;6.86;100.00;101592.72;6295742;28;20048;-66
2021/11/05 08:40:13;;;;;;;17.20;4.47;;;;;;;6.90;100.00;101596.94;6294182;28;20041;-66
2021/11/05 08:43:19;;;;;;;15.32;4.22;;;;;;;6.98;100.00;101609.84;6295889;28;20055;-66
2021/11/05 08:46:21;;;;;;;15.02;3.85;;;;;;;7.01;100.00;101612.38;6296207;28;20045;-67
2021/11/05 08:49:24;;;;;;;12.50;4.18;;;;;;;7.02;100.00;101611.47;6295916;28;20535;-65
2021/11/05 08:52:25;;;;;;;14.52;5.32;;;;;;;6.98;100.00;101618.53;6296192;28;20488;-66
2021/11/05 08:55:27;;;;;;;17.27;5.10;;;;;;;6.98;100.00;101628.97;6295974;28;20063;-66
2021/11/05 08:58:30;;;;;;;10.70;4.32;;;;;;;6.99;100.00;101625.47;6296137;28;20052;-65
2021/11/05 09:01:32;;;;;;;10.05;3.90;;;;;;;6.99;100.00;101632.44;6295021;28;20124;-65
2021/11/05 09:04:33;;;;;;;10.00;4.00;;;;;;;7.00;100.00;101629.81;6295847;28;20139;-65
2021/11/05 09:07:34;;;;;;;11.25;4.47;;;;;;;7.06;100.00;101636.66;6296016;28;20049;-65
2021/11/05 09:10:36;;;;;;;11.45;3.97;;;;;;;7.09;100.00;101645.28;6296061;28;20480;-65
2021/11/05 09:13:39;;;;;;;15.07;4.55;;;;;;;7.06;100.00;101640.13;6295625;28;20488;-65
2021/11/05 09:16:41;;;;;;;11.57;3.80;;;;;;;7.21;100.00;101657.16;6295378;28;20053;-66
2021/11/05 09:19:42;;;;;;;13.30;5.40;;;;;;;7.25;100.00;101658.81;6295793;28;20053;-66
2021/11/05 09:22:44;;;;;;;13.50;4.22;;;;;;;7.18;100.00;101662.50;6295616;28;20048;-66
2021/11/05 09:25:45;;;;;;;13.00;4.85;;;;;;;7.06;100.00;101671.47;6295621;28;20052;-66
2021/11/05 09:28:48;;;;;;;11.77;4.78;;;;;;;7.14;100.00;101673.06;6295654;28;20409;-66
2021/11/05 09:31:50;;;;;;;14.30;4.35;;;;;;;7.23;100.00;101678.06;6294571;28;20044;-66
2021/11/05 09:34:51;;;;;;;9.77;4.03;;;;;;;7.29;100.00;101670.06;6294517;28;20514;-66
2021/11/05 09:37:53;;;;;;;13.18;4.90;;;;;;;7.20;100.00;101684.22;6295763;28;20053;-66
2021/11/05 09:40:55;;;;;;;22.83;5.15;;;;;;;7.21;100.00;101685.06;6295345;28;20044;-66
2021/11/05 09:43:59;;;;;;;10.30;5.18;;;;;;;7.27;100.00;101695.41;6295391;28;20148;-66
2021/11/05 09:47:02;;;;;;;10.18;4.60;;;;;;;7.29;100.00;101694.44;6297248;28;20048;-65
2021/11/05 09:50:05;;;;;;;14.65;4.13;;;;;;;7.24;100.00;101700.69;6299855;28;20044;-66
2021/11/05 09:53:07;;;;;;;11.95;3.70;;;;;;;7.16;100.00;101707.84;6299980;28;20052;-66
2021/11/05 09:56:11;;;;;;;10.38;3.75;;;;;;;7.21;100.00;101708.59;6299602;28;20059;-66
2021/11/05 09:59:14;;;;;;;12.95;5.18;;;;;;;7.24;100.00;101719.84;6298378;28;20519;-66
2021/11/05 10:02:16;;;;;;;11.90;4.78;;;;;;;7.37;100.00;101720.41;6295150;28;20416;-66
2021/11/05 10:05:18;;;;;;;12.30;3.88;;;;;;;7.40;100.00;101715.09;6299538;28;20499;-66
2021/11/05 10:08:26;;;;;;;10.25;3.92;;;;;;;7.46;100.00;101720.19;6299542;28;20055;-65
2021/11/05 10:11:31;;;;;;;9.25;3.72;;;;;;;7.45;100.00;101728.94;6293407;28;20064;-65
2021/11/05 10:14:34;;;;;;;11.85;4.43;;;;;;;7.49;100.00;101725.31;6298931;28;20044;-66
2021/11/05 10:17:36;;;;;;;9.02;3.75;;;;;;;7.54;100.00;101727.81;6292262;28;20044;-66
2021/11/05 10:20:37;;;;;;;8.95;4.03;;;;;;;7.70;100.00;101729.16;6298680;28;20136;-66
2021/11/05 10:23:40;;;;;;;7.45;3.72;;;;;;;7.83;100.00;101732.34;6299409;28;20041;-66
2021/11/05 10:26:42;;;;;;;15.25;4.15;;;;;;;8.01;100.00;101736.22;6299318;28;20048;-66
2021/11/05 10:29:45;;;;;;;10.73;3.20;;;;;;;8.16;100.00;101737.56;6298832;28;20052;-66
2021/11/05 10:32:54;;;;;;;8.90;2.95;;;;;;;8.20;100.00;101741.81;6298716;28;20123;-66
2021/11/05 10:35:56;;;;;;;;;;;;;;;8.26;100.00;101746.88;6299130;28;20045;-66
2021/11/05 10:38:59;;;;;;;8.05;2.90;;;;;;;8.19;100.00;101743.59;6299122;28;19924;-67
2021/11/05 10:42:01;;;;;;;8.40;4.25;;;;;;;8.25;100.00;101747.78;6298610;28;20492;-66
2021/11/05 10:45:14;;;;;;;6.45;3.67;;;;;;;8.35;100.00;101749.25;6298746;28;20045;-65
2021/11/05 10:48:16;;;;;;;7.22;3.55;;;;;;;8.42;100.00;101747.34;6298757;28;20472;-66
2021/11/05 10:51:21;;;;;;;8.30;3.70;;;;;;;8.47;100.00;101748.09;6298666;28;20067;-66
2021/11/05 10:54:22;;;;;;;6.00;3.50;;;;;;;8.54;100.00;101755.72;6298318;28;20522;-66
2021/11/05 10:57:37;;;;;;;6.97;2.53;;;;;;;8.56;100.00;101767.00;6298188;28;20055;-66
2021/11/05 11:00:41;;;;;;;6.25;2.97;;;;;;;8.67;100.00;101771.06;6298020;28;20051;-65
2021/11/05 11:03:46;;;;;;;4.05;2.47;;;;;;;8.73;100.00;101768.31;6298179;28;20053;-66
2021/11/05 11:06:49;;;;;;;5.30;2.60;;;;;;;8.76;100.00;101770.81;6298212;28;20060;-66
2021/11/05 11:09:50;;;;;;;6.63;2.90;;;;;;;8.71;100.00;101770.94;6311906;28;20082;-65
2021/11/05 11:12:52;;;;;;;6.05;3.08;;;;;;;8.74;100.00;101767.38;6323237;28;20055;-66
2021/11/05 11:15:54;;;;;;;12.00;3.28;;;;;;;8.70;100.00;101768.38;6323172;28;20675;-66
2021/11/05 11:19:00;;;;;;;5.93;3.17;;;;;;;8.68;100.00;101775.44;6323148;28;20047;-65
2021/11/05 11:22:05;;;;;;;4.70;3.03;;;;;;;8.70;100.00;101773.63;6322782;28;20403;-66
2021/11/05 11:25:08;;;;;;;6.70;3.05;;;;;;;8.64;100.00;101785.13;6307529;28;20055;-66
2021/11/05 11:28:10;;;;;;;6.80;2.90;;;;;;;8.66;100.00;101788.56;6297648;28;20052;-65
2021/11/05 11:31:15;;;;;;;6.15;2.53;;;;;;;8.76;100.00;101786.53;6304080;22;20049;-70
2021/11/05 11:34:17;;;;;;;5.50;2.65;;;;;;;8.72;100.00;101787.53;6247547;28;20562;-69
2021/11/05 11:37:19;;;;;;;6.32;3.28;;;;;;;8.75;100.00;101790.06;6272814;28;20056;-69
2021/11/05 11:40:20;;;;;;;4.30;2.65;;;;;;;8.75;100.00;101790.91;6272346;28;20060;-69
2021/11/05 11:43:23;;;;;;;7.68;3.05;;;;;;;8.83;100.00;101796.81;6272556;28;20488;-69
2021/11/05 11:46:26;;;;;;;6.32;2.63;;;;;;;8.88;100.00;101799.28;6272662;28;20049;-69
2021/11/05 11:49:42;;;;;;;4.38;2.22;;;;;;;8.99;100.00;101806.81;6250498;28;20049;-70
2021/11/05 11:52:43;;;;;;;6.20;2.55;;;;;;;8.94;100.00;101801.72;6247796;28;20566;-69
2021/11/05 11:56:00;;;;;;;6.35;3.97;;;;;;;9.00;100.00;101805.94;6247598;28;20049;-68
2021/11/05 11:59:03;;;;;;;4.22;2.28;;;;;;;9.02;100.00;101802.34;6247767;28;20050;-70
2021/11/05 12:02:31;;;;;;;7.22;2.90;;;;;;;9.05;100.00;101810.13;6258783;28;20046;-70
2021/11/05 12:05:39;;;;;;;7.13;2.60;;;;;;;9.06;100.00;101811.84;6271904;28;20393;-70
2021/11/05 12:08:42;;;;;;;7.25;2.72;;;;;;;9.08;100.00;101807.44;6272334;28;20049;-70
2021/11/05 12:11:43;;;;;;;4.00;2.47;;;;;;;9.15;100.00;101808.09;6271827;28;20535;-70
2021/11/05 12:15:10;;;;;;;3.40;2.15;;;;;;;9.17;100.00;101803.66;6262106;28;20064;-71
2021/11/05 12:18:14;;;;;;;4.72;2.75;;;;;;;9.20;100.00;101811.44;6259079;28;20419;-70
2021/11/05 12:21:18;;;;;;;5.63;2.03;;;;;;;9.24;100.00;101809.59;6261068;28;20045;-70
2021/11/05 12:24:29;;;;;;;2.95;1.83;;;;;;;9.31;100.00;101811.97;6263062;28;20085;-71
2021/11/05 12:27:31;;;;;;;4.25;1.98;;;;;;;9.34;100.00;101814.50;6247011;28;20467;-74
2021/11/05 12:30:33;;;;;;;5.60;3.00;;;;;;;9.35;100.00;101817.97;6246825;28;20045;-70
2021/11/05 12:33:36;;;;;;;8.05;2.78;;;;;;;9.40;100.00;101814.31;6248716;28;20076;-69
2021/11/05 12:36:48;;;;;;;3.25;1.88;;;;;;;9.45;100.00;101810.66;6263773;28;20044;-71
2021/11/05 12:39:50;;;;;;;4.40;1.90;;;;;;;9.44;100.00;101816.81;6271485;28;20056;-71
2021/11/05 12:42:53;;;;;;;5.47;1.52;;;;;;;9.52;100.00;101815.69;6271245;28;20055;-70
2021/11/05 12:45:56;;;;;;;5.53;2.70;;;;;;;9.52;100.00;101818.31;6271460;28;20053;-70
2021/11/05 12:49:01;;;;;;;3.50;1.80;;;;;;;9.54;100.00;101827.00;6253354;28;20053;-71
2021/11/05 12:52:03;;;;;;;2.50;1.92;;;;;;;9.52;100.00;101822.69;6246820;28;20053;-71
2021/11/05 12:55:06;;;;;;;3.97;1.90;;;;;;;9.48;100.00;101823.69;6246372;28;20061;-69
2021/11/05 12:58:09;;;;;;;6.82;2.35;;;;;;;9.55;100.00;101820.84;6253513;28;20064;-70
2021/11/05 13:01:13;;;;;;;4.82;2.55;;;;;;;9.59;100.00;101827.72;6256825;28;20045;-71
2021/11/05 13:04:18;;;;;;;3.40;1.95;;;;;;;9.59;100.00;101832.97;6257289;28;20054;-71
2021/11/05 13:07:20;;;;;;;3.58;1.98;;;;;;;9.55;100.00;101838.34;6258093;28;20056;-70
2021/11/05 13:10:25;;;;;;;3.60;1.77;;;;;;;9.52;100.00;101841.06;6256501;28;20115;-70
2021/11/05 13:13:26;;;;;;;2.92;2.05;;;;;;;9.58;100.00;101838.22;6256858;28;20049;-69
2021/11/05 13:16:28;;;;;;;2.53;1.17;;;;;;;9.54;100.00;101853.25;6259980;28;20049;-71
2021/11/05 13:19:31;;;;;;;3.78;1.33;;;;;;;9.53;100.00;101843.63;6256643;28;20041;-70
2021/11/05 13:22:35;;;;;;;2.55;1.33;;;;;;;9.52;100.00;101849.78;6260768;28;20045;-70
2021/11/05 13:25:39;;;;;;;3.22;1.27;;;;;;;9.55;100.00;101854.94;6260418;28;20511;-72
2021/11/05 13:28:46;;;;;;;3.28;1.58;;;;;;;9.53;100.00;101846.25;6261848;28;20044;-71
2021/11/05 13:31:50;;;;;;;1.52;1.10;;;;;;;9.55;100.00;101859.34;6266470;28;20041;-70
2021/11/05 13:34:53;;;;;;;2.95;1.50;;;;;;;9.49;100.00;101857.75;6270635;28;20111;-70
2021/11/05 13:38:02;;;;;;;3.25;1.52;;;;;;;9.59;100.00;101853.09;6271802;28;20092;-71
2021/11/05 13:41:06;;;;;;;4.78;1.88;;;;;;;9.69;100.00;101857.13;6262549;28;20056;-69
2021/11/05 13:44:08;;;;;;;3.72;1.77;;;;;;;9.68;100.00;101851.94;6262391;28;20516;-70
2021/11/05 13:47:14;;;;;;;2.92;1.92;;;;;;;9.68;100.00;101841.44;6262421;28;20089;-68
2021/11/05 13:50:19;;;;;;;4.38;2.08;;;;;;;9.65;100.00;101856.38;6262600;28;20045;-68
2021/11/05 13:53:23;;;;;;;2.53;1.88;;;;;;;9.70;100.00;101850.97;6260570;28;20041;-68
2021/11/05 13:56:27;;;;;;;3.67;1.70;;;;;;;9.63;100.00;101855.56;6269506;28;20590;-68
2021/11/05 13:59:28;;;;;;;2.60;1.27;;;;;;;9.53;100.00;101851.50;6264888;28;20045;-68
2021/11/05 14:02:30;;;;;;;4.10;1.25;;;;;;;9.43;100.00;101860.56;6261763;28;20044;-70